sensor_id;sensor_type;location;lat;lon;timestamp;P1;durP1;ratioP1;P2;durP2;ratioP2
77146;SDS011;66121;52.584;9.694;2023-07-31T00:00:10;6.72;;;5.28;;
77146;SDS011;66121;52.584;9.694;2023-07-31T00:02:56;7.53;;;5.53;;
77146;SDS011;66121;52.584;9.694;2023-07-31T00:05:42;9.52;;;5.88;;
77146;SDS011;66121;52.584;9.694;2023-07-31T00:08:27;13.15;;;6.35;;
77146;SDS011;66121;52.584;9.694;2023-07-31T00:11:13;8.77;;;5.82;;
77146;SDS011;66121;52.584;9.694;2023-07-31T00:13:59;9.45;;;6.13;;
77146;SDS011;66121;52.584;9.694;2023-07-31T00:16:44;11.75;;;6.28;;
77146;SDS011;66121;52.584;9.694;2023-07-31T00:19:30;11.82;;;6.30;;
77146;SDS011;66121;52.584;9.694;2023-07-31T00:22:16;10.70;;;5.90;;
77146;SDS011;66121;52.584;9.694;2023-07-31T00:25:01;9.88;;;6.30;;
77146;SDS011;66121;52.584;9.694;2023-07-31T00:27:47;10.43;;;6.75;;
77146;SDS011;66121;52.584;9.694;2023-07-31T00:30:32;9.40;;;6.13;;
77146;SDS011;66121;52.584;9.694;2023-07-31T00:33:18;9.90;;;6.18;;
77146;SDS011;66121;52.584;9.694;2023-07-31T00:36:04;11.25;;;6.35;;
77146;SDS011;66121;52.584;9.694;2023-07-31T00:38:50;13.45;;;6.63;;
77146;SDS011;66121;52.584;9.694;2023-07-31T00:41:35;10.10;;;6.18;;
77146;SDS011;66121;52.584;9.694;2023-07-31T00:44:21;12.32;;;6.38;;
77146;SDS011;66121;52.584;9.694;2023-07-31T00:47:06;10.50;;;6.03;;
77146;SDS011;66121;52.584;9.694;2023-07-31T00:49:52;9.52;;;6.65;;
77146;SDS011;66121;52.584;9.694;2023-07-31T00:52:38;9.77;;;5.85;;
77146;SDS011;66121;52.584;9.694;2023-07-31T00:55:23;8.52;;;5.65;;
77146;SDS011;66121;52.584;9.694;2023-07-31T00:58:09;6.57;;;4.75;;
77146;SDS011;66121;52.584;9.694;2023-07-31T01:00:55;6.20;;;4.95;;
77146;SDS011;66121;52.584;9.694;2023-07-31T01:03:40;8.65;;;4.78;;
77146;SDS011;66121;52.584;9.694;2023-07-31T01:12:25;8.60;;;4.65;;
77146;SDS011;66121;52.584;9.694;2023-07-31T01:15:13;9.55;;;4.40;;
77146;SDS011;66121;52.584;9.694;2023-07-31T01:18:00;5.95;;;4.20;;
77146;SDS011;66121;52.584;9.694;2023-07-31T01:20:46;6.38;;;4.20;;
77146;SDS011;66121;52.584;9.694;2023-07-31T01:32:44;6.03;;;3.80;;
77146;SDS011;66121;52.584;9.694;2023-07-31T01:35:33;7.10;;;4.30;;
77146;SDS011;66121;52.584;9.694;2023-07-31T01:38:20;6.32;;;4.60;;
77146;SDS011;66121;52.584;9.694;2023-07-31T01:41:07;6.47;;;3.97;;
77146;SDS011;66121;52.584;9.694;2023-07-31T01:43:53;8.43;;;4.90;;
77146;SDS011;66121;52.584;9.694;2023-07-31T01:46:38;7.63;;;4.57;;
77146;SDS011;66121;52.584;9.694;2023-07-31T01:49:24;7.60;;;4.93;;
77146;SDS011;66121;52.584;9.694;2023-07-31T01:52:09;8.40;;;4.70;;
77146;SDS011;66121;52.584;9.694;2023-07-31T01:54:56;7.35;;;4.35;;
77146;SDS011;66121;52.584;9.694;2023-07-31T01:57:42;8.10;;;4.38;;
77146;SDS011;66121;52.584;9.694;2023-07-31T02:00:28;7.13;;;4.10;;
77146;SDS011;66121;52.584;9.694;2023-07-31T02:03:13;9.07;;;4.72;;
77146;SDS011;66121;52.584;9.694;2023-07-31T02:05:59;6.53;;;4.03;;
77146;SDS011;66121;52.584;9.694;2023-07-31T02:08:44;7.53;;;4.03;;
77146;SDS011;66121;52.584;9.694;2023-07-31T02:11:30;6.30;;;4.38;;
77146;SDS011;66121;52.584;9.694;2023-07-31T02:14:16;5.25;;;3.67;;
77146;SDS011;66121;52.584;9.694;2023-07-31T02:17:01;6.78;;;4.07;;
77146;SDS011;66121;52.584;9.694;2023-07-31T02:19:47;5.13;;;3.83;;
77146;SDS011;66121;52.584;9.694;2023-07-31T02:22:33;5.60;;;3.47;;
77146;SDS011;66121;52.584;9.694;2023-07-31T02:25:18;5.68;;;4.05;;
77146;SDS011;66121;52.584;9.694;2023-07-31T02:28:04;5.80;;;3.75;;
77146;SDS011;66121;52.584;9.694;2023-07-31T02:30:50;4.22;;;3.30;;
77146;SDS011;66121;52.584;9.694;2023-07-31T02:33:37;7.35;;;3.80;;
77146;SDS011;66121;52.584;9.694;2023-07-31T02:36:23;5.55;;;3.38;;
77146;SDS011;66121;52.584;9.694;2023-07-31T02:39:08;6.07;;;3.40;;
77146;SDS011;66121;52.584;9.694;2023-07-31T02:41:54;7.15;;;3.10;;
77146;SDS011;66121;52.584;9.694;2023-07-31T02:44:39;8.32;;;3.45;;
77146;SDS011;66121;52.584;9.694;2023-07-31T02:47:25;4.88;;;2.67;;
77146;SDS011;66121;52.584;9.694;2023-07-31T02:50:11;5.55;;;3.00;;
77146;SDS011;66121;52.584;9.694;2023-07-31T02:52:56;5.53;;;2.78;;
77146;SDS011;66121;52.584;9.694;2023-07-31T02:55:42;4.78;;;2.33;;
77146;SDS011;66121;52.584;9.694;2023-07-31T02:58:27;4.18;;;2.78;;
77146;SDS011;66121;52.584;9.694;2023-07-31T03:01:13;3.88;;;2.45;;
77146;SDS011;66121;52.584;9.694;2023-07-31T03:03:59;6.75;;;2.60;;
77146;SDS011;66121;52.584;9.694;2023-07-31T03:06:45;6.43;;;3.17;;
77146;SDS011;66121;52.584;9.694;2023-07-31T03:09:30;6.75;;;2.60;;
77146;SDS011;66121;52.584;9.694;2023-07-31T03:12:16;5.20;;;2.60;;
77146;SDS011;66121;52.584;9.694;2023-07-31T03:15:02;4.18;;;2.47;;
77146;SDS011;66121;52.584;9.694;2023-07-31T03:17:47;5.65;;;2.47;;
77146;SDS011;66121;52.584;9.694;2023-07-31T03:20:33;3.80;;;2.67;;
77146;SDS011;66121;52.584;9.694;2023-07-31T03:23:19;4.95;;;2.55;;
77146;SDS011;66121;52.584;9.694;2023-07-31T03:26:06;4.07;;;2.20;;
77146;SDS011;66121;52.584;9.694;2023-07-31T03:28:52;4.20;;;2.50;;
77146;SDS011;66121;52.584;9.694;2023-07-31T03:31:38;5.22;;;2.70;;
77146;SDS011;66121;52.584;9.694;2023-07-31T03:34:23;3.72;;;2.70;;
77146;SDS011;66121;52.584;9.694;2023-07-31T03:37:09;4.25;;;2.70;;
77146;SDS011;66121;52.584;9.694;2023-07-31T03:39:55;5.45;;;2.80;;
77146;SDS011;66121;52.584;9.694;2023-07-31T03:42:40;4.75;;;2.65;;
77146;SDS011;66121;52.584;9.694;2023-07-31T03:45:26;7.15;;;3.00;;
77146;SDS011;66121;52.584;9.694;2023-07-31T03:48:13;4.20;;;2.58;;
77146;SDS011;66121;52.584;9.694;2023-07-31T03:50:59;5.47;;;2.83;;
77146;SDS011;66121;52.584;9.694;2023-07-31T03:53:45;4.63;;;3.38;;
77146;SDS011;66121;52.584;9.694;2023-07-31T03:56:30;5.78;;;3.30;;
77146;SDS011;66121;52.584;9.694;2023-07-31T03:59:16;7.80;;;3.10;;
77146;SDS011;66121;52.584;9.694;2023-07-31T04:02:02;4.22;;;2.85;;
77146;SDS011;66121;52.584;9.694;2023-07-31T04:04:48;6.03;;;3.10;;
77146;SDS011;66121;52.584;9.694;2023-07-31T04:07:33;7.68;;;3.08;;
77146;SDS011;66121;52.584;9.694;2023-07-31T04:10:19;4.38;;;3.40;;
77146;SDS011;66121;52.584;9.694;2023-07-31T04:13:04;5.20;;;2.97;;
77146;SDS011;66121;52.584;9.694;2023-07-31T04:15:50;4.57;;;3.28;;
77146;SDS011;66121;52.584;9.694;2023-07-31T04:18:37;5.10;;;2.92;;
77146;SDS011;66121;52.584;9.694;2023-07-31T04:21:23;5.00;;;2.85;;
77146;SDS011;66121;52.584;9.694;2023-07-31T04:24:08;5.18;;;2.95;;
77146;SDS011;66121;52.584;9.694;2023-07-31T04:26:54;7.25;;;3.05;;
77146;SDS011;66121;52.584;9.694;2023-07-31T04:29:41;4.32;;;2.70;;
77146;SDS011;66121;52.584;9.694;2023-07-31T04:32:27;11.13;;;3.30;;
77146;SDS011;66121;52.584;9.694;2023-07-31T04:35:14;6.72;;;3.53;;
77146;SDS011;66121;52.584;9.694;2023-07-31T04:38:00;5.05;;;3.58;;
77146;SDS011;66121;52.584;9.694;2023-07-31T04:40:46;6.03;;;2.83;;
77146;SDS011;66121;52.584;9.694;2023-07-31T04:43:32;3.70;;;2.70;;
77146;SDS011;66121;52.584;9.694;2023-07-31T04:46:18;4.45;;;3.00;;
77146;SDS011;66121;52.584;9.694;2023-07-31T04:49:04;5.43;;;3.00;;
77146;SDS011;66121;52.584;9.694;2023-07-31T04:51:49;4.45;;;3.08;;
77146;SDS011;66121;52.584;9.694;2023-07-31T04:54:35;6.78;;;3.30;;
77146;SDS011;66121;52.584;9.694;2023-07-31T04:57:20;6.57;;;2.80;;
77146;SDS011;66121;52.584;9.694;2023-07-31T05:00:06;5.72;;;3.00;;
77146;SDS011;66121;52.584;9.694;2023-07-31T05:02:52;4.47;;;2.67;;
77146;SDS011;66121;52.584;9.694;2023-07-31T05:05:38;4.00;;;2.58;;
77146;SDS011;66121;52.584;9.694;2023-07-31T05:08:23;5.10;;;2.50;;
77146;SDS011;66121;52.584;9.694;2023-07-31T05:11:09;3.63;;;2.70;;
77146;SDS011;66121;52.584;9.694;2023-07-31T05:13:55;4.65;;;2.72;;
77146;SDS011;66121;52.584;9.694;2023-07-31T05:16:40;3.20;;;2.22;;
77146;SDS011;66121;52.584;9.694;2023-07-31T05:19:26;4.40;;;2.67;;
77146;SDS011;66121;52.584;9.694;2023-07-31T05:22:12;7.22;;;2.80;;
77146;SDS011;66121;52.584;9.694;2023-07-31T05:24:57;4.68;;;2.58;;
77146;SDS011;66121;52.584;9.694;2023-07-31T05:27:43;2.95;;;1.98;;
77146;SDS011;66121;52.584;9.694;2023-07-31T05:30:32;3.03;;;2.20;;
77146;SDS011;66121;52.584;9.694;2023-07-31T05:33:18;3.90;;;2.20;;
77146;SDS011;66121;52.584;9.694;2023-07-31T05:36:03;3.38;;;2.13;;
77146;SDS011;66121;52.584;9.694;2023-07-31T05:38:49;3.85;;;2.33;;
77146;SDS011;66121;52.584;9.694;2023-07-31T05:41:35;3.40;;;2.08;;
77146;SDS011;66121;52.584;9.694;2023-07-31T05:44:21;5.28;;;2.42;;
77146;SDS011;66121;52.584;9.694;2023-07-31T05:47:06;3.25;;;1.80;;
77146;SDS011;66121;52.584;9.694;2023-07-31T05:49:52;6.55;;;2.20;;
77146;SDS011;66121;52.584;9.694;2023-07-31T05:52:38;3.03;;;2.30;;
77146;SDS011;66121;52.584;9.694;2023-07-31T05:55:24;4.05;;;2.13;;
77146;SDS011;66121;52.584;9.694;2023-07-31T05:58:12;5.22;;;2.40;;
77146;SDS011;66121;52.584;9.694;2023-07-31T06:00:57;6.63;;;2.40;;
77146;SDS011;66121;52.584;9.694;2023-07-31T06:03:43;5.03;;;2.50;;
77146;SDS011;66121;52.584;9.694;2023-07-31T06:06:29;2.95;;;2.00;;
77146;SDS011;66121;52.584;9.694;2023-07-31T06:09:14;3.63;;;2.00;;
77146;SDS011;66121;52.584;9.694;2023-07-31T06:12:00;4.20;;;2.22;;
77146;SDS011;66121;52.584;9.694;2023-07-31T06:14:46;3.78;;;2.30;;
77146;SDS011;66121;52.584;9.694;2023-07-31T06:17:31;6.68;;;2.53;;
77146;SDS011;66121;52.584;9.694;2023-07-31T06:20:17;3.95;;;2.50;;
77146;SDS011;66121;52.584;9.694;2023-07-31T06:23:02;5.82;;;3.00;;
77146;SDS011;66121;52.584;9.694;2023-07-31T06:25:49;6.25;;;3.58;;
77146;SDS011;66121;52.584;9.694;2023-07-31T06:28:34;6.90;;;3.83;;
77146;SDS011;66121;52.584;9.694;2023-07-31T06:31:20;7.35;;;3.85;;
77146;SDS011;66121;52.584;9.694;2023-07-31T06:34:08;8.05;;;4.75;;
77146;SDS011;66121;52.584;9.694;2023-07-31T06:36:53;9.05;;;4.88;;
77146;SDS011;66121;52.584;9.694;2023-07-31T06:39:39;12.00;;;6.32;;
77146;SDS011;66121;52.584;9.694;2023-07-31T06:42:25;12.88;;;6.55;;
77146;SDS011;66121;52.584;9.694;2023-07-31T06:45:11;15.30;;;7.25;;
77146;SDS011;66121;52.584;9.694;2023-07-31T06:47:56;15.63;;;7.22;;
77146;SDS011;66121;52.584;9.694;2023-07-31T06:50:46;11.77;;;6.85;;
77146;SDS011;66121;52.584;9.694;2023-07-31T06:53:32;12.13;;;7.47;;
77146;SDS011;66121;52.584;9.694;2023-07-31T06:56:17;13.40;;;7.15;;
77146;SDS011;66121;52.584;9.694;2023-07-31T06:59:03;14.00;;;7.97;;
77146;SDS011;66121;52.584;9.694;2023-07-31T07:01:49;17.50;;;8.13;;
77146;SDS011;66121;52.584;9.694;2023-07-31T07:04:34;16.88;;;7.57;;
77146;SDS011;66121;52.584;9.694;2023-07-31T07:07:20;13.77;;;7.68;;
77146;SDS011;66121;52.584;9.694;2023-07-31T07:10:06;16.23;;;8.00;;
77146;SDS011;66121;52.584;9.694;2023-07-31T07:12:52;13.35;;;7.85;;
77146;SDS011;66121;52.584;9.694;2023-07-31T07:15:38;17.30;;;8.88;;
77146;SDS011;66121;52.584;9.694;2023-07-31T07:18:24;17.08;;;8.75;;
77146;SDS011;66121;52.584;9.694;2023-07-31T07:21:09;14.88;;;8.85;;
77146;SDS011;66121;52.584;9.694;2023-07-31T07:23:59;17.67;;;8.35;;
77146;SDS011;66121;52.584;9.694;2023-07-31T07:26:45;19.00;;;9.18;;
77146;SDS011;66121;52.584;9.694;2023-07-31T07:29:31;16.60;;;8.23;;
77146;SDS011;66121;52.584;9.694;2023-07-31T07:32:16;18.15;;;8.63;;
77146;SDS011;66121;52.584;9.694;2023-07-31T07:35:03;18.40;;;8.85;;
77146;SDS011;66121;52.584;9.694;2023-07-31T07:37:49;17.38;;;8.43;;
77146;SDS011;66121;52.584;9.694;2023-07-31T07:40:39;19.20;;;9.15;;
77146;SDS011;66121;52.584;9.694;2023-07-31T07:43:25;17.20;;;8.80;;
77146;SDS011;66121;52.584;9.694;2023-07-31T07:46:10;16.00;;;9.68;;
77146;SDS011;66121;52.584;9.694;2023-07-31T07:48:56;17.25;;;8.65;;
77146;SDS011;66121;52.584;9.694;2023-07-31T07:51:41;17.60;;;8.40;;
77146;SDS011;66121;52.584;9.694;2023-07-31T07:54:27;18.48;;;7.97;;
77146;SDS011;66121;52.584;9.694;2023-07-31T07:57:13;20.75;;;7.63;;
77146;SDS011;66121;52.584;9.694;2023-07-31T07:59:58;19.83;;;8.20;;
77146;SDS011;66121;52.584;9.694;2023-07-31T08:02:44;15.98;;;8.35;;
77146;SDS011;66121;52.584;9.694;2023-07-31T08:05:29;23.58;;;9.40;;
77146;SDS011;66121;52.584;9.694;2023-07-31T08:08:19;18.55;;;8.40;;
77146;SDS011;66121;52.584;9.694;2023-07-31T08:11:05;20.40;;;8.90;;
77146;SDS011;66121;52.584;9.694;2023-07-31T08:13:51;22.48;;;8.40;;
77146;SDS011;66121;52.584;9.694;2023-07-31T08:16:37;15.23;;;7.70;;
77146;SDS011;66121;52.584;9.694;2023-07-31T08:19:24;16.83;;;7.60;;
77146;SDS011;66121;52.584;9.694;2023-07-31T08:22:09;16.73;;;7.00;;
77146;SDS011;66121;52.584;9.694;2023-07-31T08:24:55;18.65;;;6.78;;
77146;SDS011;66121;52.584;9.694;2023-07-31T08:27:43;11.15;;;6.90;;
77146;SDS011;66121;52.584;9.694;2023-07-31T08:30:29;15.98;;;6.03;;
77146;SDS011;66121;52.584;9.694;2023-07-31T08:33:15;15.73;;;7.72;;
77146;SDS011;66121;52.584;9.694;2023-07-31T08:36:01;14.77;;;7.45;;
77146;SDS011;66121;52.584;9.694;2023-07-31T08:38:47;12.10;;;5.97;;
77146;SDS011;66121;52.584;9.694;2023-07-31T08:41:42;17.15;;;5.78;;
77146;SDS011;66121;52.584;9.694;2023-07-31T08:44:29;16.23;;;6.68;;
77146;SDS011;66121;52.584;9.694;2023-07-31T08:47:16;16.17;;;5.85;;
77146;SDS011;66121;52.584;9.694;2023-07-31T08:50:02;16.90;;;7.45;;
77146;SDS011;66121;52.584;9.694;2023-07-31T08:52:48;11.88;;;6.00;;
77146;SDS011;66121;52.584;9.694;2023-07-31T08:55:36;9.63;;;5.80;;
77146;SDS011;66121;52.584;9.694;2023-07-31T08:58:23;12.13;;;5.38;;
77146;SDS011;66121;52.584;9.694;2023-07-31T09:01:09;14.15;;;6.07;;
77146;SDS011;66121;52.584;9.694;2023-07-31T09:03:56;14.48;;;5.32;;
77146;SDS011;66121;52.584;9.694;2023-07-31T09:06:44;12.63;;;5.38;;
77146;SDS011;66121;52.584;9.694;2023-07-31T09:09:33;10.50;;;5.32;;
77146;SDS011;66121;52.584;9.694;2023-07-31T09:12:19;14.77;;;6.10;;
77146;SDS011;66121;52.584;9.694;2023-07-31T09:15:05;11.10;;;5.53;;
77146;SDS011;66121;52.584;9.694;2023-07-31T09:17:58;12.45;;;5.53;;
77146;SDS011;66121;52.584;9.694;2023-07-31T09:20:59;13.77;;;5.63;;
77146;SDS011;66121;52.584;9.694;2023-07-31T09:23:49;14.60;;;6.25;;
77146;SDS011;66121;52.584;9.694;2023-07-31T09:26:36;12.50;;;5.88;;
77146;SDS011;66121;52.584;9.694;2023-07-31T09:29:22;10.70;;;5.78;;
77146;SDS011;66121;52.584;9.694;2023-07-31T09:32:15;12.07;;;5.45;;
77146;SDS011;66121;52.584;9.694;2023-07-31T09:35:11;14.40;;;5.25;;
77146;SDS011;66121;52.584;9.694;2023-07-31T09:38:06;12.35;;;5.10;;
77146;SDS011;66121;52.584;9.694;2023-07-31T09:40:53;16.55;;;5.95;;
77146;SDS011;66121;52.584;9.694;2023-07-31T09:43:38;7.55;;;5.15;;
77146;SDS011;66121;52.584;9.694;2023-07-31T09:46:26;10.13;;;4.88;;
77146;SDS011;66121;52.584;9.694;2023-07-31T09:49:13;8.00;;;5.00;;
77146;SDS011;66121;52.584;9.694;2023-07-31T09:51:59;11.82;;;5.03;;
77146;SDS011;66121;52.584;9.694;2023-07-31T09:54:45;9.27;;;4.80;;
77146;SDS011;66121;52.584;9.694;2023-07-31T09:57:31;10.50;;;4.60;;
77146;SDS011;66121;52.584;9.694;2023-07-31T10:00:18;9.48;;;5.07;;
77146;SDS011;66121;52.584;9.694;2023-07-31T10:03:05;9.63;;;4.28;;
77146;SDS011;66121;52.584;9.694;2023-07-31T10:05:53;6.40;;;4.60;;
77146;SDS011;66121;52.584;9.694;2023-07-31T10:08:41;7.65;;;4.25;;
77146;SDS011;66121;52.584;9.694;2023-07-31T10:11:28;8.95;;;5.30;;
77146;SDS011;66121;52.584;9.694;2023-07-31T10:14:16;8.15;;;4.53;;
77146;SDS011;66121;52.584;9.694;2023-07-31T10:17:06;8.93;;;5.20;;
77146;SDS011;66121;52.584;9.694;2023-07-31T10:19:53;10.23;;;5.40;;
77146;SDS011;66121;52.584;9.694;2023-07-31T10:22:39;10.32;;;5.35;;
77146;SDS011;66121;52.584;9.694;2023-07-31T10:25:26;7.53;;;4.80;;
77146;SDS011;66121;52.584;9.694;2023-07-31T10:28:12;7.80;;;4.38;;
77146;SDS011;66121;52.584;9.694;2023-07-31T10:30:58;7.28;;;4.45;;
77146;SDS011;66121;52.584;9.694;2023-07-31T10:33:44;8.50;;;5.20;;
77146;SDS011;66121;52.584;9.694;2023-07-31T10:36:30;5.88;;;4.20;;
77146;SDS011;66121;52.584;9.694;2023-07-31T10:48:27;6.95;;;3.45;;
77146;SDS011;66121;52.584;9.694;2023-07-31T10:51:19;6.70;;;3.55;;
77146;SDS011;66121;52.584;9.694;2023-07-31T10:54:12;6.57;;;3.80;;
77146;SDS011;66121;52.584;9.694;2023-07-31T10:57:03;5.43;;;3.47;;
77146;SDS011;66121;52.584;9.694;2023-07-31T11:00:20;4.90;;;3.30;;
77146;SDS011;66121;52.584;9.694;2023-07-31T11:03:13;7.03;;;4.00;;
77146;SDS011;66121;52.584;9.694;2023-07-31T11:06:03;5.97;;;3.55;;
77146;SDS011;66121;52.584;9.694;2023-07-31T11:08:50;7.15;;;3.13;;
77146;SDS011;66121;52.584;9.694;2023-07-31T11:11:36;3.65;;;2.58;;
77146;SDS011;66121;52.584;9.694;2023-07-31T11:14:22;4.00;;;2.90;;
77146;SDS011;66121;52.584;9.694;2023-07-31T11:17:08;4.35;;;2.80;;
77146;SDS011;66121;52.584;9.694;2023-07-31T11:19:53;3.67;;;2.63;;
77146;SDS011;66121;52.584;9.694;2023-07-31T11:22:39;5.95;;;2.85;;
77146;SDS011;66121;52.584;9.694;2023-07-31T11:25:25;4.72;;;2.75;;
77146;SDS011;66121;52.584;9.694;2023-07-31T11:28:11;4.20;;;2.63;;
77146;SDS011;66121;52.584;9.694;2023-07-31T11:30:58;6.03;;;2.80;;
77146;SDS011;66121;52.584;9.694;2023-07-31T11:33:44;4.22;;;2.88;;
77146;SDS011;66121;52.584;9.694;2023-07-31T11:36:29;5.32;;;2.55;;
77146;SDS011;66121;52.584;9.694;2023-07-31T11:39:15;4.25;;;2.30;;
77146;SDS011;66121;52.584;9.694;2023-07-31T11:42:01;6.15;;;2.55;;
77146;SDS011;66121;52.584;9.694;2023-07-31T11:44:47;4.22;;;2.30;;
77146;SDS011;66121;52.584;9.694;2023-07-31T11:47:33;7.68;;;3.08;;
77146;SDS011;66121;52.584;9.694;2023-07-31T11:50:20;3.72;;;2.15;;
77146;SDS011;66121;52.584;9.694;2023-07-31T11:53:06;2.40;;;1.80;;
77146;SDS011;66121;52.584;9.694;2023-07-31T11:55:54;2.88;;;1.90;;
77146;SDS011;66121;52.584;9.694;2023-07-31T11:58:40;3.28;;;2.03;;
77146;SDS011;66121;52.584;9.694;2023-07-31T12:01:29;4.80;;;2.42;;
77146;SDS011;66121;52.584;9.694;2023-07-31T12:04:15;3.40;;;2.22;;
77146;SDS011;66121;52.584;9.694;2023-07-31T12:07:01;4.25;;;2.45;;
77146;SDS011;66121;52.584;9.694;2023-07-31T12:09:53;6.10;;;2.85;;
77146;SDS011;66121;52.584;9.694;2023-07-31T12:12:40;3.42;;;2.22;;
77146;SDS011;66121;52.584;9.694;2023-07-31T12:15:29;6.22;;;2.40;;
77146;SDS011;66121;52.584;9.694;2023-07-31T12:18:19;4.50;;;2.60;;
77146;SDS011;66121;52.584;9.694;2023-07-31T12:21:06;4.35;;;2.50;;
77146;SDS011;66121;52.584;9.694;2023-07-31T12:23:53;3.88;;;2.20;;
77146;SDS011;66121;52.584;9.694;2023-07-31T12:26:39;4.22;;;2.42;;
77146;SDS011;66121;52.584;9.694;2023-07-31T12:29:33;2.83;;;1.70;;
77146;SDS011;66121;52.584;9.694;2023-07-31T12:32:21;3.38;;;2.15;;
77146;SDS011;66121;52.584;9.694;2023-07-31T12:35:08;3.00;;;1.92;;
77146;SDS011;66121;52.584;9.694;2023-07-31T12:37:53;4.20;;;2.03;;
77146;SDS011;66121;52.584;9.694;2023-07-31T12:40:40;3.72;;;2.00;;
77146;SDS011;66121;52.584;9.694;2023-07-31T12:43:39;3.95;;;2.20;;
77146;SDS011;66121;52.584;9.694;2023-07-31T12:47:10;3.50;;;1.98;;
77146;SDS011;66121;52.584;9.694;2023-07-31T12:50:03;3.60;;;2.20;;
77146;SDS011;66121;52.584;9.694;2023-07-31T12:52:49;3.20;;;2.00;;
77146;SDS011;66121;52.584;9.694;2023-07-31T12:55:35;3.58;;;2.25;;
77146;SDS011;66121;52.584;9.694;2023-07-31T12:58:22;4.18;;;2.10;;
77146;SDS011;66121;52.584;9.694;2023-07-31T13:01:08;3.30;;;1.90;;
77146;SDS011;66121;52.584;9.694;2023-07-31T13:03:53;4.07;;;2.33;;
77146;SDS011;66121;52.584;9.694;2023-07-31T13:06:39;3.72;;;2.38;;
77146;SDS011;66121;52.584;9.694;2023-07-31T13:09:25;5.25;;;2.40;;
77146;SDS011;66121;52.584;9.694;2023-07-31T13:12:10;3.00;;;1.90;;
77146;SDS011;66121;52.584;9.694;2023-07-31T13:14:56;6.50;;;2.15;;
77146;SDS011;66121;52.584;9.694;2023-07-31T13:17:41;3.05;;;2.15;;
77146;SDS011;66121;52.584;9.694;2023-07-31T13:20:27;2.88;;;1.70;;
77146;SDS011;66121;52.584;9.694;2023-07-31T13:23:13;3.25;;;2.00;;
77146;SDS011;66121;52.584;9.694;2023-07-31T13:25:58;2.40;;;1.58;;
77146;SDS011;66121;52.584;9.694;2023-07-31T13:28:44;3.08;;;2.13;;
77146;SDS011;66121;52.584;9.694;2023-07-31T13:31:30;3.00;;;2.00;;
77146;SDS011;66121;52.584;9.694;2023-07-31T13:34:15;3.47;;;1.83;;
77146;SDS011;66121;52.584;9.694;2023-07-31T13:37:01;3.42;;;1.92;;
77146;SDS011;66121;52.584;9.694;2023-07-31T13:39:46;3.40;;;1.92;;
77146;SDS011;66121;52.584;9.694;2023-07-31T13:42:32;3.47;;;2.15;;
77146;SDS011;66121;52.584;9.694;2023-07-31T13:45:18;4.47;;;2.40;;
77146;SDS011;66121;52.584;9.694;2023-07-31T13:48:04;2.85;;;2.03;;
77146;SDS011;66121;52.584;9.694;2023-07-31T13:50:49;2.80;;;1.70;;
77146;SDS011;66121;52.584;9.694;2023-07-31T13:53:35;3.17;;;1.92;;
77146;SDS011;66121;52.584;9.694;2023-07-31T13:56:20;4.22;;;2.00;;
77146;SDS011;66121;52.584;9.694;2023-07-31T13:59:06;2.90;;;1.73;;
77146;SDS011;66121;52.584;9.694;2023-07-31T14:01:52;2.90;;;1.65;;
77146;SDS011;66121;52.584;9.694;2023-07-31T14:04:38;3.53;;;2.40;;
77146;SDS011;66121;52.584;9.694;2023-07-31T14:07:24;3.10;;;1.63;;
77146;SDS011;66121;52.584;9.694;2023-07-31T14:10:09;2.95;;;1.80;;
77146;SDS011;66121;52.584;9.694;2023-07-31T14:12:55;2.67;;;1.83;;
77146;SDS011;66121;52.584;9.694;2023-07-31T14:15:41;3.33;;;1.60;;
77146;SDS011;66121;52.584;9.694;2023-07-31T14:18:28;3.22;;;1.98;;
77146;SDS011;66121;52.584;9.694;2023-07-31T14:21:14;2.97;;;1.67;;
77146;SDS011;66121;52.584;9.694;2023-07-31T14:23:59;2.28;;;1.70;;
77146;SDS011;66121;52.584;9.694;2023-07-31T14:26:45;3.83;;;1.98;;
77146;SDS011;66121;52.584;9.694;2023-07-31T14:29:31;2.67;;;1.88;;
77146;SDS011;66121;52.584;9.694;2023-07-31T14:32:16;3.30;;;2.10;;
77146;SDS011;66121;52.584;9.694;2023-07-31T14:35:02;3.00;;;2.08;;
77146;SDS011;66121;52.584;9.694;2023-07-31T14:37:48;3.00;;;2.13;;
77146;SDS011;66121;52.584;9.694;2023-07-31T14:40:34;4.20;;;2.40;;
77146;SDS011;66121;52.584;9.694;2023-07-31T14:43:20;3.58;;;2.35;;
77146;SDS011;66121;52.584;9.694;2023-07-31T14:46:05;5.22;;;2.50;;
77146;SDS011;66121;52.584;9.694;2023-07-31T14:48:51;4.85;;;3.03;;
77146;SDS011;66121;52.584;9.694;2023-07-31T14:51:37;5.32;;;3.30;;
77146;SDS011;66121;52.584;9.694;2023-07-31T14:54:22;4.32;;;3.25;;
77146;SDS011;66121;52.584;9.694;2023-07-31T14:57:08;4.97;;;3.47;;
77146;SDS011;66121;52.584;9.694;2023-07-31T14:59:53;6.53;;;4.10;;
77146;SDS011;66121;52.584;9.694;2023-07-31T15:02:39;5.68;;;4.30;;
77146;SDS011;66121;52.584;9.694;2023-07-31T15:05:25;5.32;;;4.22;;
77146;SDS011;66121;52.584;9.694;2023-07-31T15:08:11;8.85;;;4.43;;
77146;SDS011;66121;52.584;9.694;2023-07-31T15:10:57;5.97;;;5.00;;
77146;SDS011;66121;52.584;9.694;2023-07-31T15:13:42;6.18;;;4.53;;
77146;SDS011;66121;52.584;9.694;2023-07-31T15:16:28;5.80;;;4.50;;
77146;SDS011;66121;52.584;9.694;2023-07-31T15:19:15;6.53;;;4.63;;
77146;SDS011;66121;52.584;9.694;2023-07-31T15:22:01;8.23;;;4.60;;
77146;SDS011;66121;52.584;9.694;2023-07-31T15:24:48;6.35;;;4.40;;
77146;SDS011;66121;52.584;9.694;2023-07-31T15:27:34;6.22;;;4.68;;
77146;SDS011;66121;52.584;9.694;2023-07-31T15:30:19;7.18;;;5.20;;
77146;SDS011;66121;52.584;9.694;2023-07-31T15:33:05;6.07;;;5.10;;
77146;SDS011;66121;52.584;9.694;2023-07-31T15:35:51;7.35;;;5.15;;
77146;SDS011;66121;52.584;9.694;2023-07-31T15:38:40;6.80;;;5.35;;
77146;SDS011;66121;52.584;9.694;2023-07-31T15:41:26;7.88;;;5.45;;
77146;SDS011;66121;52.584;9.694;2023-07-31T15:44:11;7.57;;;5.05;;
77146;SDS011;66121;52.584;9.694;2023-07-31T15:46:57;6.25;;;4.47;;
77146;SDS011;66121;52.584;9.694;2023-07-31T15:49:43;7.03;;;5.30;;
77146;SDS011;66121;52.584;9.694;2023-07-31T15:52:29;7.25;;;4.78;;
77146;SDS011;66121;52.584;9.694;2023-07-31T15:55:15;7.63;;;4.95;;
77146;SDS011;66121;52.584;9.694;2023-07-31T15:58:00;6.53;;;4.72;;
77146;SDS011;66121;52.584;9.694;2023-07-31T16:00:46;6.72;;;4.70;;
77146;SDS011;66121;52.584;9.694;2023-07-31T16:03:32;5.32;;;4.10;;
77146;SDS011;66121;52.584;9.694;2023-07-31T16:06:17;5.65;;;4.30;;
77146;SDS011;66121;52.584;9.694;2023-07-31T16:09:03;6.38;;;4.22;;
77146;SDS011;66121;52.584;9.694;2023-07-31T16:11:49;5.05;;;3.72;;
77146;SDS011;66121;52.584;9.694;2023-07-31T16:14:35;6.50;;;4.63;;
77146;SDS011;66121;52.584;9.694;2023-07-31T16:17:20;7.05;;;4.30;;
77146;SDS011;66121;52.584;9.694;2023-07-31T16:20:06;8.75;;;4.85;;
77146;SDS011;66121;52.584;9.694;2023-07-31T16:22:53;7.47;;;4.80;;
77146;SDS011;66121;52.584;9.694;2023-07-31T16:25:39;7.57;;;4.47;;
77146;SDS011;66121;52.584;9.694;2023-07-31T16:28:25;10.10;;;5.13;;
77146;SDS011;66121;52.584;9.694;2023-07-31T16:31:10;7.18;;;4.85;;
77146;SDS011;66121;52.584;9.694;2023-07-31T16:33:56;7.07;;;4.40;;
77146;SDS011;66121;52.584;9.694;2023-07-31T16:36:43;5.82;;;5.07;;
77146;SDS011;66121;52.584;9.694;2023-07-31T16:39:29;6.10;;;4.63;;
77146;SDS011;66121;52.584;9.694;2023-07-31T16:42:20;6.78;;;5.15;;
77146;SDS011;66121;52.584;9.694;2023-07-31T16:45:07;6.68;;;5.00;;
77146;SDS011;66121;52.584;9.694;2023-07-31T16:47:53;6.75;;;5.32;;
77146;SDS011;66121;52.584;9.694;2023-07-31T16:50:39;6.03;;;4.88;;
77146;SDS011;66121;52.584;9.694;2023-07-31T16:53:24;6.70;;;5.35;;
77146;SDS011;66121;52.584;9.694;2023-07-31T16:56:10;6.47;;;5.03;;
77146;SDS011;66121;52.584;9.694;2023-07-31T16:58:56;6.38;;;5.20;;
77146;SDS011;66121;52.584;9.694;2023-07-31T17:01:41;7.28;;;5.50;;
77146;SDS011;66121;52.584;9.694;2023-07-31T17:04:27;7.60;;;5.25;;